Time;durP1;ratioP1;P1;durP2;ratioP2;P2;SDS_P1;SDS_P2;PMS_P1;PMS_P2;Temp;Humidity;BMP_temperature;BMP_pressure;BME280_temperature;BME280_humidity;BME280_pressure;Samples;Min_cycle;Max_cycle;Signal;HPM_P1;HPM_P2
2022/06/08 00:00:23;;;;;;;1999.90;999.90;;;17.90;99.90;;;;;;4979983;28;20101;-76
2022/06/08 00:03:01;;;;;;;1999.90;999.90;;;17.90;99.90;;;;;;4977315;28;20062;-76
2022/06/08 00:05:27;;;;;;;1999.90;999.90;;;17.80;99.90;;;;;;4980092;28;20027;-76
2022/06/08 00:07:53;;;;;;;1999.90;999.90;;;17.80;99.90;;;;;;4980071;28;20041;-76
2022/06/08 00:10:19;;;;;;;1999.90;999.90;;;17.80;99.90;;;;;;4980154;28;20107;-75
2022/06/08 00:12:44;;;;;;;1999.90;999.90;;;17.80;99.90;;;;;;4977959;28;20034;-76
2022/06/08 00:15:13;;;;;;;1999.90;999.90;;;17.80;99.90;;;;;;4975402;28;20039;-75
2022/06/08 00:17:39;;;;;;;1999.90;999.90;;;17.80;99.90;;;;;;4980153;28;20053;-76
2022/06/08 00:20:06;;;;;;;1999.90;999.90;;;17.60;99.90;;;;;;4980023;28;20378;-75
2022/06/08 00:22:32;;;;;;;1999.90;999.90;;;17.40;99.90;;;;;;4969065;28;20027;-75
2022/06/08 00:24:58;;;;;;;1999.90;999.90;;;17.30;99.90;;;;;;4957014;28;20062;-75
2022/06/08 00:27:23;;;;;;;1999.90;999.90;;;17.20;99.90;;;;;;4969866;28;20034;-76
2022/06/08 00:29:49;;;;;;;1999.90;999.90;;;17.10;99.90;;;;;;4979947;28;20039;-76
2022/06/08 00:32:15;;;;;;;1999.90;999.90;;;17.00;99.90;;;;;;4977613;28;20401;-75
2022/06/08 00:34:40;;;;;;;1999.90;999.90;;;17.00;99.90;;;;;;4979734;28;20117;-75
2022/06/08 00:37:06;;;;;;;1999.90;999.90;;;17.00;99.90;;;;;;4979707;28;20113;-75
2022/06/08 00:39:32;;;;;;;1999.90;999.90;;;16.90;99.90;;;;;;4968640;28;20123;-75
2022/06/08 00:42:03;;;;;;;1999.90;999.90;;;16.80;99.90;;;;;;4979821;28;20033;-75
2022/06/08 00:44:42;;;;;;;1999.90;999.90;;;16.50;99.90;;;;;;4971657;28;20026;-75
2022/06/08 00:47:11;;;;;;;1999.90;999.90;;;16.50;99.90;;;;;;4966028;28;20028;-75
2022/06/08 00:49:56;;;;;;;1999.90;999.90;;;16.40;99.90;;;;;;4974425;28;20019;-76
2022/06/08 00:52:22;;;;;;;1999.90;999.90;;;16.30;99.90;;;;;;4974472;28;20030;-75
2022/06/08 00:54:53;;;;;;;1999.90;999.90;;;16.40;99.90;;;;;;4976054;28;20038;-75
2022/06/08 00:57:24;;;;;;;1999.90;999.90;;;16.40;99.90;;;;;;4957484;28;20027;-75
2022/06/08 01:00:12;;;;;;;1999.90;999.90;;;16.40;99.90;;;;;;4955037;28;20023;-75
2022/06/08 01:02:38;;;;;;;1999.90;999.90;;;16.40;99.90;;;;;;4957138;28;20368;-79
2022/06/08 01:05:25;;;;;;;1999.90;999.90;;;16.10;99.90;;;;;;4976564;28;20045;-75
2022/06/08 01:07:54;;;;;;;1999.90;999.90;;;16.00;99.90;;;;;;4976350;28;20026;-76
2022/06/08 01:10:23;;;;;;;1999.90;999.90;;;16.00;99.90;;;;;;4946281;28;20109;-75
2022/06/08 01:12:49;;;;;;;1999.90;999.90;;;16.00;99.90;;;;;;4945419;28;20469;-75
2022/06/08 01:15:19;;;;;;;1999.90;999.90;;;16.00;99.90;;;;;;4971078;28;20023;-74
2022/06/08 01:17:45;;;;;;;1999.90;999.90;;;16.10;99.90;;;;;;4976650;28;20100;-75
2022/06/08 01:20:11;;;;;;;1999.90;999.90;;;16.10;99.90;;;;;;4976252;28;20031;-75
2022/06/08 01:22:37;;;;;;;1999.90;999.90;;;16.10;99.90;;;;;;4964690;28;20579;-75
2022/06/08 01:25:05;;;;;;;1999.90;999.90;;;16.10;99.90;;;;;;4965742;28;20055;-78
2022/06/08 01:28:00;;;;;;;1999.90;999.90;;;16.10;99.90;;;;;;4969799;28;20035;-75
2022/06/08 01:30:34;;;;;;;1999.90;999.90;;;16.10;99.90;;;;;;4976232;28;20037;-75
2022/06/08 01:33:21;;;;;;;1999.90;999.90;;;16.10;99.90;;;;;;4973042;28;20102;-75
2022/06/08 01:36:25;;;;;;;1999.90;999.90;;;16.10;99.90;;;;;;4976136;28;20027;-75
2022/06/08 01:39:04;;;;;;;1999.90;999.90;;;16.10;99.90;;;;;;4949567;28;20032;-75
2022/06/08 01:41:36;;;;;;;1999.90;999.90;;;16.10;99.90;;;;;;4975975;28;20496;-75
2022/06/08 01:44:10;;;;;;;1999.90;999.90;;;16.10;99.90;;;;;;4967480;28;20076;-75
2022/06/08 01:46:50;;;;;;;1999.90;999.90;;;16.10;99.90;;;;;;4965603;28;20016;-75
2022/06/08 01:49:25;;;;;;;1999.90;999.90;;;16.10;99.90;;;;;;4972055;28;20015;-75
2022/06/08 01:52:00;;;;;;;1999.90;999.90;;;16.10;99.90;;;;;;4975529;28;20074;-75
2022/06/08 01:54:44;;;;;;;1999.90;999.90;;;16.10;99.90;;;;;;4975642;28;20122;-82
2022/06/08 01:57:46;;;;;;;1999.90;999.90;;;16.10;99.90;;;;;;4974197;28;20031;-75
2022/06/08 02:00:21;;;;;;;1999.90;999.90;;;16.10;99.90;;;;;;4957104;28;20710;-75
2022/06/08 02:02:53;;;;;;;1999.90;999.90;;;16.10;99.90;;;;;;4972201;28;20487;-75
2022/06/08 02:05:31;;;;;;;1999.90;999.90;;;16.10;99.90;;;;;;4969902;28;20022;-75
2022/06/08 02:08:30;;;;;;;1999.90;999.90;;;16.10;99.90;;;;;;4975360;28;20031;-75
2022/06/08 02:11:05;;;;;;;1999.90;999.90;;;16.10;99.90;;;;;;4974933;28;20022;-75
2022/06/08 02:13:41;;;;;;;1999.90;999.90;;;16.10;99.90;;;;;;4974098;28;20026;-74
2022/06/08 02:16:18;;;;;;;1999.90;999.90;;;16.10;99.90;;;;;;4969983;28;20034;-80
2022/06/08 02:18:49;;;;;;;1999.90;999.90;;;16.10;99.90;;;;;;4975084;28;20553;-75
2022/06/08 02:21:20;;;;;;;1999.90;999.90;;;16.20;99.90;;;;;;4972618;28;20035;-75
2022/06/08 02:23:52;;;;;;;1999.90;999.90;;;16.10;99.90;;;;;;4957555;28;20054;-75
2022/06/08 02:26:32;;;;;;;1999.90;999.90;;;16.10;99.90;;;;;;4974529;28;20085;-75
2022/06/08 02:29:15;;;;;;;1999.90;999.90;;;16.10;99.90;;;;;;4969982;28;20054;-75
2022/06/08 02:31:55;;;;;;;1999.90;999.90;;;16.00;99.90;;;;;;4974782;28;20022;-75
2022/06/08 02:34:28;;;;;;;1999.90;999.90;;;16.10;99.90;;;;;;4972356;28;20524;-75
2022/06/08 02:36:57;;;;;;;1999.90;999.90;;;16.10;99.90;;;;;;4974667;28;20109;-75
2022/06/08 02:39:34;;;;;;;1999.90;999.90;;;16.20;99.90;;;;;;4963205;28;20031;-75
2022/06/08 02:42:08;;;;;;;1999.90;999.90;;;16.20;99.90;;;;;;4974721;28;20019;-75
2022/06/08 02:44:38;;;;;;;1999.90;999.90;;;16.20;99.90;;;;;;4966668;28;20038;-75
2022/06/08 02:47:20;;;;;;;1999.90;999.90;;;16.30;99.90;;;;;;4962171;28;20388;-74
2022/06/08 02:49:45;;;;;;;1999.90;999.90;;;16.30;99.90;;;;;;4971762;28;20031;-76
2022/06/08 02:52:21;;;;;;;1999.90;999.90;;;16.40;99.90;;;;;;4974548;28;20034;-74
2022/06/08 02:54:48;;;;;;;1999.90;999.90;;;16.40;99.90;;;;;;4974346;28;20058;-74
2022/06/08 02:57:17;;;;;;;1999.90;999.90;;;16.40;99.90;;;;;;4973187;28;20046;-75
2022/06/08 02:59:53;;;;;;;1999.90;999.90;;;16.50;99.90;;;;;;4968121;28;20401;-75
2022/06/08 03:02:30;;;;;;;1999.90;999.90;;;16.50;99.90;;;;;;4971731;28;20441;-75
2022/06/08 03:05:15;;;;;;;1999.90;999.90;;;16.60;99.90;;;;;;4974257;28;20033;-75
2022/06/08 03:07:49;;;;;;;1999.90;999.90;;;16.60;99.90;;;;;;4973990;28;20397;-75
2022/06/08 03:10:18;;;;;;;1999.90;999.90;;;16.60;99.90;;;;;;4973943;28;20506;-75
2022/06/08 03:13:12;;;;;;;1999.90;999.90;;;16.60;99.90;;;;;;4972920;28;20115;-75
2022/06/08 03:15:40;;;;;;;1999.90;999.90;;;16.60;99.90;;;;;;4960760;28;20070;-75
2022/06/08 03:18:06;;;;;;;1999.90;999.90;;;16.60;99.90;;;;;;4972156;28;20027;-75
2022/06/08 03:20:32;;;;;;;1999.90;999.90;;;16.70;99.90;;;;;;4973881;28;20027;-75
2022/06/08 03:22:58;;;;;;;1999.90;999.90;;;16.70;99.90;;;;;;4960402;28;20417;-75
2022/06/08 03:25:24;;;;;;;1999.90;999.90;;;16.70;99.90;;;;;;4967114;28;20133;-74
2022/06/08 03:27:50;;;;;;;1999.90;999.90;;;16.70;99.90;;;;;;4966867;28;20027;-75
2022/06/08 03:30:16;;;;;;;1999.90;999.90;;;16.80;99.90;;;;;;4973625;28;20022;-75
2022/06/08 03:32:42;;;;;;;1999.90;999.90;;;16.80;99.90;;;;;;4967953;28;20020;-75
2022/06/08 03:35:09;;;;;;;1999.90;999.90;;;16.80;99.90;;;;;;4967201;28;20097;-76
2022/06/08 03:37:36;;;;;;;1999.90;999.90;;;16.90;99.90;;;;;;4971451;28;20023;-76
2022/06/08 03:40:03;;;;;;;1999.90;999.90;;;16.90;99.90;;;;;;4965192;28;20110;-75
2022/06/08 03:42:28;;;;;;;1999.90;999.90;;;16.90;99.90;;;;;;4972759;28;20027;-75
2022/06/08 03:44:54;;;;;;;1999.90;999.90;;;16.90;99.90;;;;;;4967464;28;20049;-75
2022/06/08 03:47:24;;;;;;;1999.90;999.90;;;16.90;99.90;;;;;;4962369;28;20034;-75
2022/06/08 03:49:53;;;;;;;1999.90;999.90;;;16.90;99.90;;;;;;4960504;28;20074;-74
2022/06/08 03:52:24;;;;;;;1999.90;999.90;;;16.90;99.90;;;;;;4973318;28;20023;-75
2022/06/08 03:54:55;;;;;;;1999.90;999.90;;;17.00;99.90;;;;;;4973662;28;20023;-75
2022/06/08 03:57:22;;;;;;;1999.90;999.90;;;17.00;99.90;;;;;;4972072;28;20018;-76
2022/06/08 03:59:49;;;;;;;1999.90;999.90;;;17.00;99.90;;;;;;4951808;28;20109;-80
2022/06/08 04:02:15;;;;;;;1999.90;999.90;;;17.00;99.90;;;;;;4971012;28;20023;-75
2022/06/08 04:04:42;;;;;;;1999.90;999.90;;;17.00;99.90;;;;;;4973533;28;20039;-75
2022/06/08 04:07:08;;;;;;;1999.90;999.90;;;17.00;99.90;;;;;;4973470;28;20037;-75
2022/06/08 04:09:34;;;;;;;1999.90;999.90;;;17.00;99.90;;;;;;4973708;28;20031;-75
2022/06/08 04:12:01;;;;;;;1999.90;999.90;;;17.00;99.90;;;;;;4973747;28;20358;-75
2022/06/08 04:14:26;;;;;;;1999.90;999.90;;;17.00;99.90;;;;;;4967390;28;20039;-75
2022/06/08 04:16:52;;;;;;;1999.90;999.90;;;17.00;99.90;;;;;;4973663;28;20023;-75
2022/06/08 04:19:19;;;;;;;1999.90;999.90;;;17.10;99.90;;;;;;4973500;28;20030;-75
2022/06/08 04:21:45;;;;;;;1999.90;999.90;;;17.10;99.90;;;;;;4967370;28;20082;-76
2022/06/08 04:24:13;;;;;;;1999.90;999.90;;;17.10;99.90;;;;;;4960103;28;20122;-75
2022/06/08 04:26:39;;;;;;;1999.90;999.90;;;17.10;99.90;;;;;;4959228;28;20082;-75
2022/06/08 04:29:07;;;;;;;1999.90;999.90;;;17.10;99.90;;;;;;4973406;28;20034;-75
2022/06/08 04:31:34;;;;;;;1999.90;999.90;;;17.10;99.90;;;;;;4976391;28;20478;-75
2022/06/08 04:34:01;;;;;;;1999.90;999.90;;;17.10;99.90;;;;;;4964201;28;20019;-75
2022/06/08 04:36:27;;;;;;;1999.90;999.90;;;17.10;99.90;;;;;;4976981;28;20049;-75
2022/06/08 04:38:53;;;;;;;1999.90;999.90;;;17.20;99.90;;;;;;4965524;28;20019;-75
2022/06/08 04:41:19;;;;;;;1999.90;999.90;;;17.20;99.90;;;;;;4959785;28;20387;-75
2022/06/08 04:43:45;;;;;;;1999.90;999.90;;;17.20;99.90;;;;;;4969074;28;20030;-81
2022/06/08 04:46:16;;;;;;;1999.90;999.90;;;17.20;99.90;;;;;;4970160;28;20035;-75
2022/06/08 04:48:46;;;;;;;1999.90;999.90;;;17.10;99.90;;;;;;4972177;28;20026;-75
2022/06/08 04:51:14;;;;;;;1999.90;999.90;;;17.20;99.90;;;;;;4975969;28;20027;-74
2022/06/08 04:53:41;;;;;;;1999.90;999.90;;;17.20;99.90;;;;;;4976586;28;20027;-75
2022/06/08 04:56:08;;;;;;;1999.90;999.90;;;17.10;99.90;;;;;;4977092;28;20057;-76
2022/06/08 04:58:34;;;;;;;1999.90;999.90;;;17.00;99.90;;;;;;4963706;28;20027;-75
2022/06/08 05:01:00;;;;;;;1999.90;999.90;;;16.90;99.90;;;;;;4976457;28;20067;-76
2022/06/08 05:03:26;;;;;;;1999.90;999.90;;;17.00;99.90;;;;;;4973576;28;20041;-75
2022/06/08 05:05:51;;;;;;;1999.90;999.90;;;17.00;99.90;;;;;;4971435;28;20031;-75
2022/06/08 05:08:18;;;;;;;1999.90;999.90;;;17.00;99.90;;;;;;4976405;28;20023;-75
2022/06/08 05:10:45;;;;;;;1999.90;999.90;;;17.00;99.90;;;;;;4976460;28;20437;-76
2022/06/08 05:13:11;;;;;;;1999.90;999.90;;;17.10;99.90;;;;;;4975214;28;20034;-76
2022/06/08 05:15:39;;;;;;;1999.90;999.90;;;17.10;99.90;;;;;;4971209;28;20026;-75
2022/06/08 05:18:07;;;;;;;1999.90;999.90;;;17.10;99.90;;;;;;4976148;28;20101;-76
2022/06/08 05:20:34;;;;;;;1999.90;999.90;;;17.20;99.90;;;;;;4976208;28;20022;-76
2022/06/08 05:23:01;;;;;;;1999.90;999.90;;;17.20;99.90;;;;;;4961778;28;20027;-75
2022/06/08 05:25:33;;;;;;;1999.90;999.90;;;17.30;99.90;;;;;;4957063;29;20043;-76
2022/06/08 05:27:59;;;;;;;1999.90;999.90;;;17.30;99.90;;;;;;4958806;28;20022;-76
2022/06/08 05:30:25;;;;;;;1999.90;999.90;;;17.20;99.90;;;;;;4976255;28;20039;-76
2022/06/08 05:32:52;;;;;;;1999.90;999.90;;;17.20;99.90;;;;;;4973009;28;20037;-75
2022/06/08 05:35:18;;;;;;;1999.90;999.90;;;17.20;99.90;;;;;;4973334;28;20458;-75
2022/06/08 05:37:44;;;;;;;1999.90;999.90;;;17.20;99.90;;;;;;4953211;29;20026;-75
2022/06/08 05:40:11;;;;;;;1999.90;999.90;;;17.20;99.90;;;;;;4967682;28;20022;-75
2022/06/08 05:42:37;;;;;;;1999.90;999.90;;;17.20;99.90;;;;;;4973771;28;20501;-75
2022/06/08 05:45:06;;;;;;;1999.90;999.90;;;17.20;99.90;;;;;;4969628;28;20031;-75
2022/06/08 05:47:31;;;;;;;1999.90;999.90;;;17.30;99.90;;;;;;4963047;28;20035;-75
2022/06/08 05:49:57;;;;;;;1999.90;999.90;;;17.30;99.90;;;;;;4972930;28;20038;-75
2022/06/08 05:52:23;;;;;;;1999.90;999.90;;;17.30;99.90;;;;;;4974837;28;20023;-75
2022/06/08 05:54:49;;;;;;;1999.90;999.90;;;17.30;99.90;;;;;;4975597;28;20049;-75
2022/06/08 05:57:15;;;;;;;1999.90;999.90;;;17.40;99.90;;;;;;4974356;28;20050;-76
2022/06/08 05:59:41;;;;;;;1999.90;999.90;;;17.40;99.90;;;;;;4969555;28;20027;-76
2022/06/08 06:02:10;;;;;;;1999.90;999.90;;;17.40;99.90;;;;;;4972383;28;20526;-75
2022/06/08 06:04:36;;;;;;;1999.90;999.90;;;17.40;99.90;;;;;;4973589;28;20031;-75
2022/06/08 06:07:01;;;;;;;1999.90;999.90;;;17.40;99.90;;;;;;4974259;28;20027;-76
2022/06/08 06:09:27;;;;;;;1999.90;999.90;;;17.40;99.90;;;;;;4975253;28;20517;-76
2022/06/08 06:11:52;;;;;;;1999.90;999.90;;;17.50;99.90;;;;;;4975277;28;20102;-76
2022/06/08 06:14:19;;;;;;;1999.90;999.90;;;17.40;99.90;;;;;;4969331;28;20042;-75
2022/06/08 06:16:45;;;;;;;1999.90;999.90;;;17.40;99.90;;;;;;4973412;28;20038;-76
2022/06/08 06:19:11;;;;;;;1999.90;999.90;;;17.40;99.90;;;;;;4974884;28;20042;-76
2022/06/08 06:21:37;;;;;;;1999.90;999.90;;;17.70;99.90;;;;;;4969863;28;20471;-74
2022/06/08 06:24:04;;;;;;;1999.90;999.90;;;17.90;99.90;;;;;;4950620;28;20035;-76
2022/06/08 06:26:31;;;;;;;1999.90;999.90;;;17.80;99.90;;;;;;4959453;28;20046;-76
2022/06/08 06:28:57;;;;;;;1999.90;999.90;;;17.80;99.90;;;;;;4966463;28;20031;-74
2022/06/08 06:31:29;;;;;;;1999.90;999.90;;;17.90;99.90;;;;;;4959811;28;20058;-76
2022/06/08 06:33:55;;;;;;;1999.90;999.90;;;18.10;99.90;;;;;;4958017;28;20106;-75
2022/06/08 06:36:21;;;;;;;1999.90;999.90;;;18.20;99.90;;;;;;4973393;28;20123;-76
2022/06/08 06:38:47;;;;;;;1999.90;999.90;;;18.10;99.90;;;;;;4962273;28;20027;-76
2022/06/08 06:41:16;;;;;;;1999.90;999.90;;;18.00;99.90;;;;;;4970847;28;20114;-76
2022/06/08 06:43:42;;;;;;;1999.90;999.90;;;17.90;99.90;;;;;;4956018;28;20435;-75
2022/06/08 06:46:11;;;;;;;1999.90;999.90;;;17.90;99.90;;;;;;4955852;28;20027;-76
2022/06/08 06:48:38;;;;;;;1999.90;999.90;;;18.00;99.90;;;;;;4954179;28;20058;-76
2022/06/08 06:51:04;;;;;;;1999.90;999.90;;;18.00;99.90;;;;;;4960264;28;20097;-76
2022/06/08 06:53:30;;;;;;;1999.90;999.90;;;17.90;99.90;;;;;;4960008;28;20026;-76
2022/06/08 06:55:56;;;;;;;1999.90;999.90;;;17.80;99.90;;;;;;4957770;28;20089;-77
2022/06/08 06:58:22;;;;;;;1999.90;999.90;;;17.80;99.90;;;;;;4959185;28;20035;-80
2022/06/08 07:00:48;;;;;;;1999.90;999.90;;;17.70;99.90;;;;;;4950056;28;20035;-76
2022/06/08 07:03:14;;;;;;;1999.90;999.90;;;17.70;99.90;;;;;;4958128;28;20098;-77
2022/06/08 07:05:40;;;;;;;1999.90;999.90;;;17.60;99.90;;;;;;4957315;28;20122;-76
2022/06/08 07:08:06;;;;;;;1999.90;999.90;;;17.70;99.90;;;;;;4963103;28;20086;-75
2022/06/08 07:10:32;;;;;;;1999.90;999.90;;;17.80;99.90;;;;;;4945095;28;20031;-75
2022/06/08 07:12:57;;;;;;;1999.90;999.90;;;17.80;99.90;;;;;;4961962;28;20505;-75
2022/06/08 07:15:24;;;;;;;1999.90;999.90;;;17.80;99.90;;;;;;4955719;28;20035;-74
2022/06/08 07:17:50;;;;;;;1999.90;999.90;;;18.00;99.90;;;;;;4961271;28;20019;-75
2022/06/08 07:20:18;;;;;;;1999.90;999.90;;;18.30;99.90;;;;;;4958141;28;20035;-77
2022/06/08 07:22:44;;;;;;;1999.90;999.90;;;18.40;99.90;;;;;;4955697;28;20074;-73
2022/06/08 07:25:12;;;;;;;1999.90;999.90;;;18.30;99.90;;;;;;4956664;28;20059;-75
2022/06/08 07:27:39;;;;;;;1999.90;999.90;;;18.30;99.90;;;;;;4960797;28;20045;-74
2022/06/08 07:30:06;;;;;;;1999.90;999.90;;;18.20;99.90;;;;;;4935223;29;20042;-74
2022/06/08 07:32:32;;;;;;;1999.90;999.90;;;18.20;99.90;;;;;;4955462;28;20031;-75
2022/06/08 07:34:58;;;;;;;1999.90;999.90;;;20.00;99.90;;;;;;4956943;28;20042;-75
2022/06/08 07:37:25;;;;;;;1999.90;999.90;;;20.90;99.90;;;;;;4960465;28;20097;-74
2022/06/08 07:39:51;;;;;;;1999.90;999.90;;;20.00;99.90;;;;;;4954241;28;20023;-74
2022/06/08 07:42:17;;;;;;;1999.90;999.90;;;19.60;99.90;;;;;;4959997;28;20517;-75
2022/06/08 07:44:43;;;;;;;1999.90;999.90;;;19.10;99.90;;;;;;4951396;28;20043;-74
2022/06/08 07:47:09;;;;;;;1999.90;999.90;;;19.00;99.90;;;;;;4954449;28;20027;-73
2022/06/08 07:49:39;;;;;;;1999.90;999.90;;;18.90;99.90;;;;;;4955315;28;20113;-75
2022/06/08 07:52:10;;;;;;;1999.90;999.90;;;19.00;99.90;;;;;;4955257;28;20141;-75
2022/06/08 07:54:37;;;;;;;1999.90;999.90;;;19.10;99.90;;;;;;4956574;28;20529;-74
2022/06/08 07:57:04;;;;;;;1999.90;999.90;;;19.40;99.90;;;;;;4960364;28;20031;-75
2022/06/08 07:59:32;;;;;;;1999.90;999.90;;;19.40;99.90;;;;;;4959335;28;20494;-75
2022/06/08 08:01:58;;;;;;;1999.90;999.90;;;19.30;99.90;;;;;;4961601;28;20394;-74
2022/06/08 08:04:24;;;;;;;1999.90;999.90;;;19.10;99.90;;;;;;4952536;28;20031;-74
2022/06/08 08:06:49;;;;;;;1999.90;999.90;;;18.70;99.90;;;;;;4963135;28;20035;-76
2022/06/08 08:09:20;;;;;;;1999.90;999.90;;;18.80;99.90;;;;;;4952379;28;20035;-74
2022/06/08 08:11:47;;;;;;;1999.90;999.90;;;19.00;99.90;;;;;;4968816;28;20031;-76
2022/06/08 08:14:13;;;;;;;1999.90;999.90;;;19.60;99.90;;;;;;4958999;28;20484;-75
2022/06/08 08:16:41;;;;;;;1999.90;999.90;;;20.30;99.90;;;;;;4974180;28;20486;-78
2022/06/08 08:19:06;;;;;;;1999.90;999.90;;;20.60;99.90;;;;;;4969635;28;20050;-75
2022/06/08 08:21:32;;;;;;;1999.90;999.90;;;20.40;99.90;;;;;;4967942;28;20487;-75
2022/06/08 08:24:01;;;;;;;1999.90;999.90;;;19.80;99.90;;;;;;4957786;28;20091;-75
2022/06/08 08:26:27;;;;;;;1999.90;999.90;;;19.40;99.90;;;;;;4965407;28;20142;-74
2022/06/08 08:28:54;;;;;;;1999.90;999.90;;;19.30;99.90;;;;;;4943952;28;20043;-75
2022/06/08 08:31:20;;;;;;;1999.90;999.90;;;19.00;99.90;;;;;;4972411;28;20474;-75
2022/06/08 08:33:46;;;;;;;1999.90;999.90;;;19.00;99.90;;;;;;4961349;28;20099;-75
2022/06/08 08:36:11;;;;;;;1999.90;999.90;;;19.10;99.90;;;;;;4974692;28;20023;-75
2022/06/08 08:38:37;;;;;;;1999.90;999.90;;;19.00;99.90;;;;;;4967272;28;20023;-76
2022/06/08 08:42:20;;;;;;;1999.90;999.90;;;18.80;99.90;;;;;;4975071;28;20027;-74
2022/06/08 08:43:50;;;;;;;1999.90;999.90;;;18.80;99.90;;;;;;4964282;28;20031;-73
2022/06/08 08:46:28;;;;;;;1999.90;999.90;;;18.80;99.90;;;;;;4938873;29;20399;-77
2022/06/08 08:49:11;;;;;;;1999.90;999.90;;;18.70;99.90;;;;;;4947893;28;20031;-75
2022/06/08 08:51:49;;;;;;;1999.90;999.90;;;18.90;99.90;;;;;;4957238;28;20038;-75
2022/06/08 08:54:28;;;;;;;1999.90;999.90;;;20.30;99.90;;;;;;4955216;28;20071;-76
2022/06/08 08:57:16;;;;;;;1999.90;999.90;;;21.30;99.90;;;;;;4957994;28;20030;-77
2022/06/08 08:59:48;;;;;;;1999.90;999.90;;;21.00;99.90;;;;;;4927878;29;20042;-79
2022/06/08 09:05:18;;;;;;;1999.90;999.90;;;21.00;99.90;;;;;;4973180;28;20497;-76
2022/06/08 09:07:44;;;;;;;1999.90;999.90;;;20.80;99.90;;;;;;4957312;28;20409;-77
2022/06/08 09:10:24;;;;;;;1999.90;999.90;;;20.60;99.90;;;;;;4953477;28;20031;-75
2022/06/08 09:12:50;;;;;;;1999.90;999.90;;;21.20;99.90;;;;;;4970805;28;20043;-77
2022/06/08 09:15:37;;;;;;;1999.90;999.90;;;21.60;99.90;;;;;;4959044;28;20085;-75
2022/06/08 09:18:04;;;;;;;1999.90;999.90;;;21.40;99.90;;;;;;4958045;28;20026;-77
2022/06/08 09:20:35;;;;;;;1999.90;999.90;;;20.50;99.90;;;;;;4963375;28;20031;-75
2022/06/08 09:23:27;;;;;;;1999.90;999.90;;;20.20;99.90;;;;;;4960796;28;20059;-75
2022/06/08 09:26:07;;;;;;;1999.90;999.90;;;19.70;99.90;;;;;;4948450;28;20043;-75
2022/06/08 09:28:34;;;;;;;1999.90;999.90;;;19.40;99.90;;;;;;4956235;28;20034;-75
2022/06/08 09:31:00;;;;;;;1999.90;999.90;;;19.70;99.90;;;;;;4963284;28;20042;-74
2022/06/08 09:33:35;;;;;;;1999.90;999.90;;;20.10;99.90;;;;;;4965964;28;20479;-76
2022/06/08 09:36:21;;;;;;;1999.90;999.90;;;20.40;99.90;;;;;;4964180;28;20022;-74
2022/06/08 09:38:47;;;;;;;1999.90;999.90;;;20.50;99.90;;;;;;4960284;28;20019;-75
2022/06/08 09:41:25;;;;;;;1999.90;999.90;;;20.80;99.90;;;;;;4962546;28;20019;-75
2022/06/08 09:44:18;;;;;;;1999.90;999.90;;;21.20;99.90;;;;;;4951891;28;20082;-76
2022/06/08 09:52:45;;;;;;;1999.90;999.90;;;20.90;99.90;;;;;;4960938;28;20109;-75
2022/06/08 09:55:37;;;;;;;1999.90;999.90;;;20.40;99.90;;;;;;4962873;28;20452;-75
2022/06/08 09:58:24;;;;;;;1999.90;999.90;;;20.10;99.90;;;;;;4958985;28;20019;-75
2022/06/08 10:01:04;;;;;;;1999.90;999.90;;;20.10;99.90;;;;;;4963940;28;20027;-75
2022/06/08 10:03:39;;;;;;;1999.90;999.90;;;19.80;99.90;;;;;;4943956;28;20031;-74
2022/06/08 10:06:26;;;;;;;1999.90;999.90;;;19.90;99.90;;;;;;4957210;28;20094;-75
2022/06/08 10:09:00;;;;;;;1999.90;999.90;;;20.00;99.90;;;;;;4936862;28;20493;-75
2022/06/08 10:11:56;;;;;;;1999.90;999.90;;;20.00;99.90;;;;;;4944448;28;20035;-75
2022/06/08 10:14:30;;;;;;;1999.90;999.90;;;20.00;99.90;;;;;;4927644;28;20055;-76
2022/06/08 10:17:32;;;;;;;1999.90;999.90;;;19.80;99.90;;;;;;4965751;28;20023;-76
2022/06/08 10:20:19;;;;;;;1999.90;999.90;;;19.90;99.90;;;;;;4969792;28;20031;-77
2022/06/08 10:22:48;;;;;;;1999.90;999.90;;;19.90;99.90;;;;;;4954121;28;20031;-76
2022/06/08 10:25:22;;;;;;;1999.90;999.90;;;20.30;99.90;;;;;;4919860;29;20129;-74
2022/06/08 10:28:01;;;;;;;1999.90;999.90;;;20.80;99.90;;;;;;4916493;29;20062;-75
2022/06/08 10:30:38;;;;;;;1999.90;999.90;;;21.30;99.90;;;;;;4916960;29;20546;-75
2022/06/08 10:33:11;;;;;;;1999.90;999.90;;;21.20;99.90;;;;;;4918061;29;20036;-74
2022/06/08 10:35:50;;;;;;;1999.90;999.90;;;20.60;99.90;;;;;;4920197;29;20044;-74
2022/06/08 10:38:23;;;;;;;1999.90;999.90;;;20.20;99.90;;;;;;4917068;29;20497;-74
2022/06/08 10:41:00;;;;;;;1999.90;999.90;;;19.90;99.90;;;;;;4915788;29;20788;-74
2022/06/08 10:43:32;;;;;;;1999.90;999.90;;;19.80;99.90;;;;;;4917148;29;20036;-74
2022/06/08 10:46:04;;;;;;;1999.90;999.90;;;19.70;99.90;;;;;;4912422;29;20112;-74
2022/06/08 10:48:43;;;;;;;1999.90;999.90;;;19.90;99.90;;;;;;4911214;29;20115;-74
2022/06/08 10:51:09;;;;;;;1999.90;999.90;;;19.90;99.90;;;;;;4912158;29;20035;-75
2022/06/08 10:56:53;;;;;;;1999.90;999.90;;;20.00;99.90;;;;;;4915226;29;20039;-74
2022/06/08 10:59:30;;;;;;;1999.90;999.90;;;21.60;99.90;;;;;;4915388;29;20478;-75
2022/06/08 11:02:23;;;;;;;1999.90;999.90;;;24.20;99.90;;;;;;4918161;29;20398;-74
2022/06/08 11:04:51;;;;;;;;;;;23.90;99.90;;;;;;4914990;29;20084;-76
2022/06/08 11:07:19;;;;;;;1999.90;999.90;;;23.80;99.90;;;;;;4915146;29;19919;-75
2022/06/08 11:09:55;;;;;;;1999.90;999.90;;;22.80;99.90;;;;;;4922000;29;20028;-76
2022/06/08 11:12:39;;;;;;;1999.90;999.90;;;23.10;99.90;;;;;;4923530;29;20090;-75
2022/06/08 11:15:24;;;;;;;1999.90;999.90;;;23.60;99.90;;;;;;4925126;29;20558;-75
2022/06/08 11:18:00;;;;;;;1999.90;999.90;;;23.80;99.90;;;;;;4915765;29;20047;-75
2022/06/08 11:20:37;;;;;;;1999.90;999.90;;;25.40;98.60;;;;;;4927957;29;20023;-75
2022/06/08 11:23:12;;;;;;;1999.90;999.90;;;26.30;96.80;;;;;;4918286;29;20042;-75
2022/06/08 11:25:51;;;;;;;1999.90;999.90;;;24.50;97.00;;;;;;4957375;28;20454;-78
2022/06/08 11:28:27;;;;;;;1999.90;999.90;;;24.50;97.30;;;;;;4960735;28;20034;-76
2022/06/08 11:30:56;;;;;;;1999.90;999.90;;;24.90;96.10;;;;;;4959558;28;20087;-76
2022/06/08 11:33:43;;;;;;;1999.90;999.90;;;25.40;95.30;;;;;;4955867;28;20062;-77
2022/06/08 11:36:34;;;;;;;1999.90;999.90;;;25.60;94.90;;;;;;4951935;28;20035;-77
2022/06/08 11:39:16;;;;;;;1999.90;999.90;;;25.80;94.80;;;;;;4958005;28;20534;-76
2022/06/08 11:41:44;;;;;;;1999.90;999.90;;;26.00;95.80;;;;;;4937092;28;20015;-82
2022/06/08 11:44:20;;;;;;;1999.90;999.90;;;26.00;94.90;;;;;;4938652;29;20031;-77
2022/06/08 11:46:53;;;;;;;1999.90;999.90;;;26.40;94.90;;;;;;4949788;28;20394;-76
2022/06/08 11:49:29;;;;;;;1999.90;999.90;;;25.50;95.10;;;;;;4952577;28;20030;-76
2022/06/08 11:51:55;;;;;;;1999.90;999.90;;;26.00;94.40;;;;;;4951431;28;20395;-75
2022/06/08 11:54:33;;;;;;;1999.90;999.90;;;25.70;94.00;;;;;;4951011;28;20094;-76
2022/06/08 11:57:16;;;;;;;1999.90;999.90;;;25.60;94.60;;;;;;4950026;28;20027;-76
2022/06/08 11:59:44;;;;;;;1999.90;999.90;;;26.00;94.60;;;;;;4949498;28;20058;-76
2022/06/08 12:02:22;;;;;;;1999.90;999.90;;;26.10;92.90;;;;;;4951658;28;20030;-77
2022/06/08 12:04:52;;;;;;;1999.90;999.90;;;26.20;93.60;;;;;;4952133;28;20027;-76
2022/06/08 12:07:42;;;;;;;1999.90;999.90;;;26.30;92.50;;;;;;4954040;28;20099;-76
2022/06/08 12:10:12;;;;;;;1999.90;999.90;;;26.10;93.80;;;;;;4950488;28;20042;-76
2022/06/08 12:12:40;;;;;;;1999.90;999.90;;;26.00;94.40;;;;;;4950215;28;20562;-76
2022/06/08 12:15:33;;;;;;;1999.90;999.90;;;26.10;94.60;;;;;;4951238;28;20510;-76
2022/06/08 12:18:24;;;;;;;1999.90;999.90;;;26.10;93.90;;;;;;4960225;28;20028;-75
2022/06/08 12:21:04;;;;;;;1999.90;999.90;;;25.80;95.10;;;;;;4936645;28;20038;-76
2022/06/08 12:23:42;;;;;;;1999.90;999.90;;;25.10;95.60;;;;;;4952621;28;20171;-78
2022/06/08 12:26:20;;;;;;;1999.90;999.90;;;23.40;96.70;;;;;;4957381;28;20047;-76
2022/06/08 12:29:01;;;;;;;1999.90;999.90;;;22.70;98.30;;;;;;4958621;28;20573;-75
2022/06/08 12:31:31;;;;;;;1999.90;999.90;;;22.80;99.90;;;;;;4959380;28;20085;-75